createdAt,value
2022-07-26T00:00:11.661Z,22.80
2022-07-26T00:01:11.065Z,22.81
2022-07-26T00:02:14.182Z,22.79
2022-07-26T00:03:10.763Z,22.68
2022-07-26T00:04:11.330Z,22.38
2022-07-26T00:05:11.558Z,22.79
2022-07-26T00:06:10.987Z,23.61
2022-07-26T00:07:10.779Z,24.09
2022-07-26T00:08:11.448Z,20
2022-07-26T00:09:11.758Z,24.91
2022-07-26T00:10:11.589Z,24.79
2022-07-26T00:11:10.973Z,24.87
2022-07-26T00:12:11.425Z,25.03
2022-07-26T00:13:10.649Z,23.94
2022-07-26T00:14:11.394Z,23.28
2022-07-26T00:15:11.148Z,23.71
2022-07-26T00:16:11.078Z,23.20
2022-07-26T00:17:10.874Z,23.22
2022-07-26T00:18:16.058Z,23.29
2022-07-26T00:19:11.660Z,23.51
2022-07-26T00:20:11.582Z,23.48
2022-07-26T00:21:11.853Z,23.20
2022-07-26T00:22:11.318Z,22.72
2022-07-26T00:23:11.322Z,22.81
2022-07-26T00:24:10.697Z,22.38
2022-07-26T00:25:11.198Z,22.63
2022-07-26T00:26:11.020Z,22.36
2022-07-26T00:27:10.771Z,21.93
2022-07-26T00:28:13.063Z,22.40
2022-07-26T00:29:11.621Z,22.52
2022-07-26T00:30:11.537Z,23.12
2022-07-26T00:31:11.366Z,23.45
2022-07-26T00:32:11.085Z,23.38
2022-07-26T00:33:11.692Z,23.22
2022-07-26T00:34:11.174Z,22.90
2022-07-26T00:35:10.810Z,23.43
2022-07-26T00:36:11.456Z,23.26
2022-07-26T00:37:11.011Z,23.74
2022-07-26T00:38:11.208Z,23.04
2022-07-26T00:39:11.571Z,23.11
2022-07-26T00:40:12.397Z,23.22
2022-07-26T00:41:10.964Z,23.51
2022-07-26T00:42:11.161Z,22.88
2022-07-26T00:43:10.621Z,23.51
2022-07-26T00:44:11.166Z,23.04
2022-07-26T00:45:10.658Z,23.10
2022-07-26T00:46:11.515Z,23.29
2022-07-26T00:47:11.191Z,23.51
2022-07-26T00:48:10.654Z,23.04
2022-07-26T00:49:12.013Z,23.08
2022-07-26T00:50:11.178Z,23.23
2022-07-26T00:51:10.936Z,23.12
2022-07-26T00:52:11.420Z,23.35
2022-07-26T00:53:11.210Z,23.78
2022-07-26T00:54:10.633Z,22.98
2022-07-26T00:55:11.669Z,23.04
2022-07-26T00:56:10.847Z,23.08
2022-07-26T00:57:11.600Z,23.13
2022-07-26T00:58:10.892Z,23.31
2022-07-26T00:59:12.180Z,23.36
2022-07-26T01:00:11.712Z,23.21
2022-07-26T01:01:10.873Z,23.21
2022-07-26T01:02:12.025Z,23.46
2022-07-26T01:03:11.333Z,23.37
2022-07-26T01:04:11.800Z,23.81
2022-07-26T01:05:12.021Z,23.68
2022-07-26T01:06:11.008Z,23.60
2022-07-26T01:07:18.848Z,23.68
2022-07-26T01:08:11.428Z,23.68
2022-07-26T01:09:10.999Z,23.73
2022-07-26T01:10:10.609Z,22.63
2022-07-26T01:11:10.977Z,23.20
2022-07-26T01:12:10.885Z,23.32
2022-07-26T01:13:11.265Z,23.45
2022-07-26T01:14:11.654Z,23.38
2022-07-26T01:15:11.623Z,23.62
2022-07-26T01:16:11.204Z,24.29
2022-07-26T01:17:10.807Z,24.45
2022-07-26T01:18:11.236Z,25.59
2022-07-26T01:19:10.712Z,25.76
2022-07-26T01:20:11.984Z,26.11
2022-07-26T01:21:17.910Z,26.03
2022-07-26T01:23:10.709Z,25.82
2022-07-26T01:24:12.233Z,26.62
2022-07-26T01:25:10.817Z,26.51
2022-07-26T01:26:12.178Z,26.61
2022-07-26T01:27:11.316Z,26.79
2022-07-26T01:28:10.775Z,26.70
2022-07-26T01:29:11.390Z,25.70
2022-07-26T01:30:11.128Z,25.54
2022-07-26T01:31:10.991Z,25.44
2022-07-26T01:32:11.122Z,26.54
2022-07-26T01:33:10.571Z,26.90
2022-07-26T01:34:11.969Z,27.04
2022-07-26T01:35:10.855Z,26.65
2022-07-26T01:36:11.400Z,26.69
2022-07-26T01:37:10.971Z,26.44
2022-07-26T01:38:11.453Z,26.05
2022-07-26T01:39:11.091Z,26.44
2022-07-26T01:40:12.609Z,26.71
2022-07-26T01:41:11.113Z,26.09
2022-07-26T01:42:10.800Z,26.44
2022-07-26T01:43:11.224Z,26.32
2022-07-26T01:44:12.047Z,26.32
2022-07-26T01:45:10.893Z,25.87
2022-07-26T01:46:11.700Z,26.12
2022-07-26T01:47:10.674Z,25.92
2022-07-26T01:48:10.983Z,26.65
2022-07-26T01:49:11.034Z,26.34
2022-07-26T01:50:10.773Z,26.34
2022-07-26T01:51:11.235Z,25.82
2022-07-26T01:52:10.584Z,25.04
2022-07-26T01:53:11.290Z,23.05
2022-07-26T01:54:11.877Z,23.26
2022-07-26T01:55:11.339Z,24.45
2022-07-26T01:56:10.883Z,24.04
2022-07-26T01:57:11.356Z,24.87
2022-07-26T01:58:11.071Z,26.13
2022-07-26T01:59:10.560Z,27.37
2022-07-26T02:00:12.470Z,27.69
2022-07-26T02:01:11.063Z,27.35
2022-07-26T02:02:11.007Z,26.48
2022-07-26T02:03:10.813Z,26.54
2022-07-26T02:04:12.864Z,27.11
2022-07-26T02:05:12.078Z,25.70
2022-07-26T02:06:10.904Z,25.11
2022-07-26T02:07:16.699Z,25.15
2022-07-26T02:08:13.272Z,24.82
2022-07-26T02:09:16.833Z,24.54
2022-07-26T02:10:12.089Z,24.39
2022-07-26T02:11:11.210Z,24.96
2022-07-26T02:12:10.599Z,25.04
2022-07-26T02:13:11.611Z,24.39
2022-07-26T02:14:11.863Z,25.37
2022-07-26T02:15:10.771Z,25.87
2022-07-26T02:16:11.679Z,25.72
2022-07-26T02:17:11.363Z,25.58
2022-07-26T02:18:10.782Z,25.10
2022-07-26T02:19:11.036Z,25.78
2022-07-26T02:20:11.270Z,25.95
2022-07-26T02:21:11.023Z,26.42
2022-07-26T02:22:10.490Z,25.40
2022-07-26T02:23:11.197Z,25.56
2022-07-26T02:24:11.309Z,26.29
2022-07-26T02:25:11.224Z,26.61
2022-07-26T02:26:11.429Z,26.85
2022-07-26T02:27:12.893Z,26.86
2022-07-26T02:28:11.631Z,27.17
2022-07-26T02:29:11.427Z,27.39
2022-07-26T02:30:11.611Z,26.54
2022-07-26T02:31:11.712Z,26.98
2022-07-26T02:32:11.223Z,27.09
2022-07-26T02:33:11.115Z,26.39
2022-07-26T02:34:11.549Z,26.46
2022-07-26T02:35:11.519Z,26.32
2022-07-26T02:36:11.261Z,26.70
2022-07-26T02:37:10.814Z,26.42
2022-07-26T02:38:11.413Z,26.52
2022-07-26T02:39:11.632Z,26.92
2022-07-26T02:40:14.300Z,26.65
2022-07-26T02:41:11.276Z,27.15
2022-07-26T02:42:11.161Z,26.90
2022-07-26T02:43:10.968Z,26.70
2022-07-26T02:44:12.391Z,27.43
2022-07-26T02:45:11.713Z,28.01
2022-07-26T02:46:11.629Z,27.62
2022-07-26T02:47:12.684Z,28.15
2022-07-26T02:48:11.437Z,28.37
2022-07-26T02:49:11.376Z,28.32
2022-07-26T02:50:11.453Z,28.77
2022-07-26T02:51:10.963Z,28.78
2022-07-26T02:52:11.435Z,28.78
2022-07-26T02:53:11.178Z,28.71
2022-07-26T02:54:11.485Z,29.02
2022-07-26T02:55:11.337Z,28.61
2022-07-26T02:56:11.201Z,29.15
2022-07-26T02:57:10.796Z,28.79
2022-07-26T02:58:10.590Z,28.19
2022-07-26T02:59:11.542Z,28.05
2022-07-26T03:00:12.373Z,28.34
2022-07-26T03:01:11.886Z,28.17
2022-07-26T03:02:11.305Z,28.30
2022-07-26T03:03:11.176Z,28.18
2022-07-26T03:04:11.804Z,28.59
2022-07-26T03:05:11.676Z,28.04
2022-07-26T03:06:11.211Z,28.46
2022-07-26T03:07:10.801Z,28.37
2022-07-26T03:08:11.384Z,28.32
2022-07-26T03:09:11.022Z,28.04
2022-07-26T03:10:10.992Z,28.22
2022-07-26T03:11:15.740Z,28.03
2022-07-26T03:12:11.156Z,28.20
2022-07-26T03:13:10.579Z,26.20
2022-07-26T03:14:11.943Z,25.60
2022-07-26T03:15:10.721Z,26.21
2022-07-26T03:16:11.482Z,25.44
2022-07-26T03:17:11.036Z,24.94
2022-07-26T03:18:10.849Z,25.34
2022-07-26T03:19:11.310Z,26.78
2022-07-26T03:20:11.194Z,27.54
2022-07-26T03:21:10.679Z,26.69
2022-07-26T03:22:11.127Z,25.79
2022-07-26T03:23:10.675Z,27.01
2022-07-26T03:24:11.839Z,26.73
2022-07-26T03:25:11.676Z,26.23
2022-07-26T03:26:11.133Z,26.13
2022-07-26T03:27:10.772Z,25.68
2022-07-26T03:28:14.758Z,25.87
2022-07-26T03:29:11.995Z,25.62
2022-07-26T03:30:11.043Z,26.10
2022-07-26T03:31:11.290Z,26.09
2022-07-26T03:32:10.965Z,27.89
2022-07-26T03:33:11.740Z,26.60
2022-07-26T03:34:12.238Z,26.64
2022-07-26T03:35:11.111Z,26.96
2022-07-26T03:36:15.758Z,26.53
2022-07-26T03:37:11.282Z,26.54
2022-07-26T03:38:10.878Z,24.20
2022-07-26T03:39:11.467Z,20.19
2022-07-26T03:40:11.274Z,20.41
2022-07-26T03:41:13.681Z,24.29
2022-07-26T03:42:11.764Z,25.71
2022-07-26T03:43:11.242Z,25.73
2022-07-26T03:44:11.602Z,26.54
2022-07-26T03:45:11.656Z,25.37
2022-07-26T03:46:11.289Z,25.28
2022-07-26T03:47:10.778Z,25.20
2022-07-26T03:48:11.127Z,26.15
2022-07-26T03:49:17.444Z,26.37
2022-07-26T03:50:11.572Z,27.38
2022-07-26T03:51:11.092Z,26.37
2022-07-26T03:52:10.679Z,26.44
2022-07-26T03:53:11.144Z,27.31
2022-07-26T03:54:11.671Z,26.68
2022-07-26T03:55:11.638Z,26.29
2022-07-26T03:56:11.049Z,28.48
2022-07-26T03:57:10.538Z,27.79
2022-07-26T03:58:11.090Z,27.29
2022-07-26T03:59:10.907Z,30.21
2022-07-26T04:00:12.678Z,29.71
2022-07-26T04:01:11.701Z,28.93
2022-07-26T04:02:11.912Z,29.11
2022-07-26T04:03:11.486Z,28.95
2022-07-26T04:04:12.694Z,27.65
2022-07-26T04:05:11.501Z,28.46
2022-07-26T04:06:11.138Z,29.02
2022-07-26T04:07:13.001Z,28.82
2022-07-26T04:08:10.637Z,28.57
2022-07-26T04:09:11.840Z,28.64
2022-07-26T04:10:11.773Z,29.01
2022-07-26T04:11:11.315Z,28.5
2022-07-26T04:12:10.865Z,27.97
2022-07-26T04:13:11.562Z,28.75
2022-07-26T04:14:11.894Z,28.19
2022-07-26T04:15:11.070Z,27.87
2022-07-26T04:16:10.529Z,27.65
2022-07-26T04:17:11.201Z,27.53
2022-07-26T04:18:10.830Z,27.05
2022-07-26T04:19:11.354Z,27.12
2022-07-26T04:20:11.092Z,28.09
2022-07-26T04:21:10.848Z,29.30
2022-07-26T04:22:11.298Z,29.14
2022-07-26T04:23:15.389Z,29.36
2022-07-26T04:24:11.886Z,28.38
2022-07-26T04:25:11.173Z,28.97
2022-07-26T04:26:10.839Z,27.29
2022-07-26T04:27:11.540Z,27.96
2022-07-26T04:28:11.018Z,27.67
2022-07-26T04:29:12.343Z,27.80
2022-07-26T04:31:11.175Z,27.94
2022-07-26T04:32:10.658Z,27.17
2022-07-26T04:33:11.123Z,26.19
2022-07-26T04:34:11.489Z,26.04
2022-07-26T04:35:11.760Z,26.02
2022-07-26T04:36:11.639Z,26.36
2022-07-26T04:37:11.547Z,26.26
2022-07-26T04:38:11.414Z,26.36
2022-07-26T04:39:10.899Z,26.54
2022-07-26T04:40:11.885Z,26.68
2022-07-26T04:41:10.616Z,26.31
2022-07-26T04:42:11.280Z,26.20
2022-07-26T04:43:15.737Z,26.44
2022-07-26T04:44:11.530Z,26.45
2022-07-26T04:45:12.267Z,26.72
2022-07-26T04:46:11.227Z,26.37
2022-07-26T04:47:10.719Z,26.85
2022-07-26T04:48:11.239Z,26.64
2022-07-26T04:49:10.856Z,26.47
2022-07-26T04:50:11.824Z,26.78
2022-07-26T04:51:11.255Z,26.47
2022-07-26T04:52:10.759Z,22
2022-07-26T04:53:11.646Z,26.20
2022-07-26T04:54:11.943Z,26.84
2022-07-26T04:55:10.897Z,26.87
2022-07-26T04:56:11.424Z,26.51
2022-07-26T04:57:11.002Z,26.54
2022-07-26T04:58:10.561Z,25.97
2022-07-26T04:59:11.271Z,26.54
2022-07-26T05:00:26.576Z,25.93
2022-07-26T05:01:14.807Z,25.93
2022-07-26T05:02:12.225Z,26.37
2022-07-26T05:03:11.721Z,26.13
2022-07-26T05:04:12.391Z,25.54
2022-07-26T05:05:11.200Z,26.80
2022-07-26T05:06:10.985Z,26.23
2022-07-26T05:07:10.491Z,26.87
2022-07-26T05:08:10.943Z,27.27
2022-07-26T05:09:11.445Z,26.42
2022-07-26T05:10:11.247Z,27.13
2022-07-26T05:11:10.873Z,26.98
2022-07-26T05:12:11.767Z,27.53
2022-07-26T05:13:11.327Z,27.21
2022-07-26T05:14:11.553Z,23
2022-07-26T05:15:18.072Z,26.94
2022-07-26T05:16:15.816Z,26.96
2022-07-26T05:17:14.000Z,27.44
2022-07-26T05:18:14.214Z,27.32
2022-07-26T05:19:10.814Z,26.46
2022-07-26T05:20:11.620Z,26.37
2022-07-26T05:21:11.318Z,26.34
2022-07-26T05:22:10.955Z,26.57
2022-07-26T05:23:11.558Z,26.12
2022-07-26T05:24:12.026Z,26.59
2022-07-26T05:25:11.442Z,26.40
2022-07-26T05:26:11.450Z,25.85
2022-07-26T05:27:10.964Z,26.89
2022-07-26T05:28:11.344Z,26.18
2022-07-26T05:29:11.056Z,26.90
2022-07-26T05:30:11.143Z,27.13
2022-07-26T05:31:11.434Z,25.17
2022-07-26T05:32:11.178Z,26.15
2022-07-26T05:33:10.892Z,25.32
2022-07-26T05:34:11.749Z,24.80
2022-07-26T05:35:10.995Z,24.13
2022-07-26T05:36:10.795Z,25.06
2022-07-26T05:37:11.884Z,26.54
2022-07-26T05:38:11.655Z,25.87
2022-07-26T05:39:17.854Z,26.20
2022-07-26T05:40:11.982Z,26.45
2022-07-26T05:41:11.955Z,26.40
2022-07-26T05:42:11.372Z,25.95
2022-07-26T05:43:11.084Z,25.47
2022-07-26T05:44:11.621Z,25.18
2022-07-26T05:45:11.724Z,24.80
2022-07-26T05:46:13.704Z,25.04
2022-07-26T05:47:11.815Z,25.18
2022-07-26T05:48:11.605Z,25.12
2022-07-26T05:49:11.683Z,26.76
2022-07-26T05:50:11.554Z,26.85
2022-07-26T05:51:11.218Z,26.14
2022-07-26T05:52:10.936Z,26.53
2022-07-26T05:53:12.379Z,27.12
2022-07-26T05:54:11.766Z,27.28
2022-07-26T05:55:11.608Z,26.85
2022-07-26T05:56:11.390Z,26.02
2022-07-26T05:57:11.224Z,26.38
2022-07-26T05:58:11.074Z,25.70
2022-07-26T05:59:11.059Z,26.27
2022-07-26T06:00:11.966Z,26.29
2022-07-26T06:01:11.906Z,25.70
2022-07-26T06:02:12.477Z,25.62
2022-07-26T06:03:11.530Z,25.98
2022-07-26T06:04:12.730Z,26.37
2022-07-26T06:05:10.856Z,27.17
2022-07-26T06:06:11.554Z,27.45
2022-07-26T06:07:11.303Z,26.70
2022-07-26T06:08:11.117Z,26.94
2022-07-26T06:09:11.055Z,26.70
2022-07-26T06:10:11.141Z,29.01
2022-07-26T06:11:10.900Z,28.55
2022-07-26T06:12:11.718Z,22
2022-07-26T06:13:11.542Z,27.90
2022-07-26T06:14:11.675Z,27.65
2022-07-26T06:15:19.234Z,28.96
2022-07-26T06:16:10.855Z,29.22
2022-07-26T06:17:11.598Z,28.53
2022-07-26T06:18:11.296Z,29.07
2022-07-26T06:19:11.062Z,29.07
2022-07-26T06:20:11.237Z,28.84
2022-07-26T06:21:10.910Z,29.05
2022-07-26T06:22:11.359Z,29.04
2022-07-26T06:23:11.235Z,27.56
2022-07-26T06:24:11.942Z,28.18
2022-07-26T06:25:11.108Z,28.64
2022-07-26T06:26:10.659Z,27.89
2022-07-26T06:27:11.131Z,25.89
2022-07-26T06:28:10.854Z,27.71
2022-07-26T06:29:11.453Z,28.70
2022-07-26T06:30:11.578Z,29.04
2022-07-26T06:31:11.524Z,29.37
2022-07-26T06:32:11.353Z,29.46
2022-07-26T06:33:11.369Z,29.39
2022-07-26T06:34:13.703Z,28.98
2022-07-26T06:35:11.534Z,29.01
2022-07-26T06:36:12.443Z,26.29
2022-07-26T06:37:11.314Z,23
2022-07-26T06:38:11.347Z,28.26
2022-07-26T06:39:11.058Z,29.18
2022-07-26T06:40:11.137Z,27.60
2022-07-26T06:41:10.750Z,28.54
2022-07-26T06:42:11.502Z,29.21
2022-07-26T06:43:11.300Z,28.69
2022-07-26T06:44:11.935Z,29.46
2022-07-26T06:45:11.258Z,29.07
2022-07-26T06:46:11.370Z,28.88
2022-07-26T06:47:11.234Z,28.37
2022-07-26T06:48:11.464Z,29.11
2022-07-26T06:49:11.392Z,29.07
2022-07-26T06:50:11.245Z,28.81
2022-07-26T06:51:10.888Z,28.80
2022-07-26T06:52:11.461Z,28.88
2022-07-26T06:53:11.011Z,28.86
2022-07-26T06:54:11.844Z,29.03
2022-07-26T06:55:12.730Z,28.90
2022-07-26T06:56:11.509Z,28.27
2022-07-26T06:57:11.150Z,28.94
2022-07-26T06:58:11.022Z,29.07
2022-07-26T06:59:13.559Z,29.47
2022-07-26T07:00:12.287Z,28.98
2022-07-26T07:01:11.139Z,28.5
2022-07-26T07:02:11.164Z,29.26
2022-07-26T07:03:11.420Z,29.84
2022-07-26T07:04:11.890Z,29.97
2022-07-26T07:05:11.258Z,28.89
2022-07-26T07:06:11.006Z,26.54
2022-07-26T07:07:11.679Z,25.10
2022-07-26T07:08:29.994Z,26.60
2022-07-26T07:09:12.471Z,29.54
2022-07-26T07:10:33.885Z,28.79
2022-07-26T07:11:11.430Z,28.79
2022-07-26T07:12:14.412Z,26
2022-07-26T07:13:11.017Z,24.87
2022-07-26T07:14:11.601Z,26.03
2022-07-26T07:15:11.805Z,25.97
2022-07-26T07:16:11.816Z,26.30
2022-07-26T07:17:20.173Z,27.04
2022-07-26T07:18:10.987Z,27.42
2022-07-26T07:19:11.165Z,27.17
2022-07-26T07:20:11.213Z,27.67
2022-07-26T07:21:11.231Z,28.19
2022-07-26T07:22:10.860Z,25.69
2022-07-26T07:23:11.697Z,24.12
2022-07-26T07:24:12.309Z,24.35
2022-07-26T07:25:14.789Z,23.72
2022-07-26T07:26:11.576Z,23.26
2022-07-26T07:27:11.144Z,23.20
2022-07-26T07:28:11.184Z,22.44
2022-07-26T07:29:11.093Z,22.29
2022-07-26T07:30:11.204Z,22.10
2022-07-26T07:31:12.106Z,22.01
2022-07-26T07:33:22.033Z,22.79
2022-07-26T07:34:12.648Z,22.68
2022-07-26T07:35:16.819Z,22.65
2022-07-26T07:36:12.270Z,26.29
2022-07-26T07:37:11.483Z,26.92
2022-07-26T07:38:10.736Z,26.79
2022-07-26T07:39:19.260Z,26.92
2022-07-26T07:40:11.963Z,26.70
2022-07-26T07:41:11.582Z,26.45
2022-07-26T07:42:11.682Z,26.32
2022-07-26T07:43:11.808Z,26.09
2022-07-26T07:44:12.143Z,26.23
2022-07-26T07:45:11.207Z,26.62
2022-07-26T07:46:11.014Z,25.98
2022-07-26T07:47:11.069Z,25.84
2022-07-26T07:48:10.789Z,24.45
2022-07-26T07:49:13.173Z,23.79
2022-07-26T07:50:11.273Z,24.23
2022-07-26T07:51:11.560Z,24.46
2022-07-26T07:52:11.600Z,24.02
2022-07-26T07:53:10.665Z,24.44
2022-07-26T07:54:11.796Z,23.43
2022-07-26T07:55:46.054Z,24.18
2022-07-26T07:56:11.677Z,24.18
2022-07-26T07:57:11.565Z,24.19
2022-07-26T07:58:11.415Z,23.5
2022-07-26T07:59:12.447Z,24.31
2022-07-26T08:00:12.686Z,24.36
2022-07-26T08:01:17.836Z,25.07
2022-07-26T08:02:11.175Z,23.84
2022-07-26T08:03:11.601Z,23.45
2022-07-26T08:04:11.684Z,23.37
2022-07-26T08:05:19.111Z,23.48
2022-07-26T08:06:11.757Z,23.82
2022-07-26T08:07:11.623Z,23.90
2022-07-26T08:08:11.961Z,23.79
2022-07-26T08:09:13.487Z,23.92
2022-07-26T08:10:11.564Z,24.38
2022-07-26T08:11:12.453Z,24.82
2022-07-26T08:12:11.619Z,25.05
2022-07-26T08:13:13.803Z,25.56
2022-07-26T08:14:12.901Z,25.79
2022-07-26T08:15:11.837Z,24.31
2022-07-26T08:16:13.291Z,25.22
2022-07-26T08:17:11.343Z,25.20
2022-07-26T08:18:12.209Z,25.31
2022-07-26T08:19:12.756Z,25.59
2022-07-26T08:20:15.754Z,24.23
2022-07-26T08:21:11.399Z,25.29
2022-07-26T08:22:11.581Z,25.38
2022-07-26T08:23:11.393Z,25.15
2022-07-26T08:24:11.097Z,25.64
2022-07-26T08:25:11.158Z,25.25
2022-07-26T08:26:10.972Z,25.30
2022-07-26T08:27:11.637Z,24.70
2022-07-26T08:28:47.323Z,24.42
2022-07-26T08:29:11.021Z,24.42
2022-07-26T08:30:12.632Z,24.13
2022-07-26T08:31:11.602Z,24.69
2022-07-26T08:32:11.582Z,25.02
2022-07-26T08:33:11.494Z,24.07
2022-07-26T08:34:11.346Z,22.81
2022-07-26T08:35:23.310Z,23.05
2022-07-26T08:36:10.911Z,23.05
2022-07-26T08:37:21.347Z,23.45
2022-07-26T08:38:10.970Z,23.45
2022-07-26T08:39:12.285Z,22.70
2022-07-26T08:40:11.310Z,21.92
2022-07-26T08:41:11.484Z,22.93
2022-07-26T08:42:11.781Z,23.69
2022-07-26T08:43:11.738Z,23.51
2022-07-26T08:44:11.310Z,23.16
2022-07-26T08:45:11.805Z,23.58
2022-07-26T08:46:11.745Z,24.30
2022-07-26T08:47:11.934Z,23.23
2022-07-26T08:49:13.177Z,24.02
2022-07-26T08:50:11.616Z,24.26
2022-07-26T08:51:15.301Z,24.17
2022-07-26T08:52:11.337Z,24.37
2022-07-26T08:53:11.103Z,23.61
2022-07-26T08:54:10.903Z,23.09
2022-07-26T08:55:12.418Z,22.52
2022-07-26T08:56:11.592Z,22.85
2022-07-26T08:57:11.740Z,22.64
2022-07-26T08:58:11.414Z,23.14
2022-07-26T08:59:17.087Z,23.53
2022-07-26T09:00:13.153Z,24.01
2022-07-26T09:01:11.215Z,24.56
2022-07-26T09:02:10.925Z,24.54
2022-07-26T09:03:11.807Z,23.59
2022-07-26T09:04:13.723Z,23.69
2022-07-26T09:05:11.805Z,23.26
2022-07-26T09:06:10.719Z,22.62
2022-07-26T09:07:11.218Z,23.27
2022-07-26T09:08:11.083Z,23.04
2022-07-26T09:09:12.026Z,22.86
2022-07-26T09:10:10.900Z,22.59
2022-07-26T09:11:11.421Z,23.11
2022-07-26T09:12:11.336Z,23.34
2022-07-26T09:13:11.028Z,23.79
2022-07-26T09:14:10.903Z,23.53
2022-07-26T09:15:12.166Z,23.56
2022-07-26T09:16:11.545Z,23.93
2022-07-26T09:17:11.910Z,24.54
2022-07-26T09:18:11.759Z,24.35
2022-07-26T09:19:12.593Z,23.79
2022-07-26T09:20:11.477Z,24.22
2022-07-26T09:21:11.134Z,24.34
2022-07-26T09:22:14.322Z,23.77
2022-07-26T09:23:10.799Z,23.36
2022-07-26T09:24:11.427Z,23.56
2022-07-26T09:25:12.252Z,23.55
2022-07-26T09:26:10.995Z,23.71
2022-07-26T09:27:10.840Z,24.14
2022-07-26T09:28:12.110Z,23.78
2022-07-26T09:29:30.379Z,23.52
2022-07-26T09:30:11.696Z,23.27
2022-07-26T09:31:11.713Z,22.39
2022-07-26T09:32:11.443Z,22.30
2022-07-26T09:33:11.380Z,22.60
2022-07-26T09:34:13.014Z,22.52
2022-07-26T09:35:50.646Z,25.54
2022-07-26T09:36:11.590Z,25.54
2022-07-26T09:37:16.256Z,25.70
2022-07-26T09:38:13.035Z,25.52
2022-07-26T09:39:12.131Z,25.89
2022-07-26T09:40:11.692Z,25.87
2022-07-26T09:41:11.576Z,26.27
2022-07-26T09:42:31.568Z,25.59
2022-07-26T09:43:15.708Z,25.59
2022-07-26T09:44:12.434Z,25.90
2022-07-26T09:45:12.109Z,26.37
2022-07-26T09:46:11.260Z,26.10
2022-07-26T09:47:11.277Z,25.97
2022-07-26T09:48:11.189Z,25.46
2022-07-26T09:49:15.069Z,26.15
2022-07-26T09:50:15.620Z,26.37
2022-07-26T09:51:11.678Z,26.40
2022-07-26T09:52:11.439Z,25.43
2022-07-26T09:53:11.250Z,25.70
2022-07-26T09:54:12.463Z,25.60
2022-07-26T09:55:11.872Z,24.29
2022-07-26T09:56:11.624Z,25.78
2022-07-26T09:57:11.995Z,26.15
2022-07-26T09:58:10.759Z,25.26
2022-07-26T09:59:11.649Z,25.07
2022-07-26T10:00:13.111Z,25.89
2022-07-26T10:01:11.228Z,24.30
2022-07-26T10:02:11.237Z,23.77
2022-07-26T10:03:11.284Z,24.04
2022-07-26T10:04:12.213Z,24.51
2022-07-26T10:05:11.317Z,24.80
2022-07-26T10:06:11.506Z,24.80
2022-07-26T10:07:11.954Z,25.71
2022-07-26T10:08:11.502Z,25.15
2022-07-26T10:09:11.770Z,25.38
2022-07-26T10:10:11.785Z,25.22
2022-07-26T10:11:11.380Z,25.22
2022-07-26T10:12:11.171Z,25.36
2022-07-26T10:13:11.098Z,24.96
2022-07-26T10:14:11.665Z,25.10
2022-07-26T10:15:11.963Z,24.37
2022-07-26T10:16:12.261Z,24.77
2022-07-26T10:17:13.106Z,24.90
2022-07-26T10:18:16.663Z,25.47
2022-07-26T10:19:11.842Z,25.60
2022-07-26T10:21:11.879Z,24.90
2022-07-26T10:22:11.838Z,24.29
2022-07-26T10:23:11.693Z,24.46
2022-07-26T10:24:12.556Z,24.18
2022-07-26T10:25:12.022Z,24.37
2022-07-26T10:26:13.496Z,23.79
2022-07-26T10:27:11.421Z,24.14
2022-07-26T10:28:15.629Z,24.11
2022-07-26T10:29:11.509Z,24.43
2022-07-26T10:30:11.902Z,23.88
2022-07-26T10:31:11.812Z,23.77
2022-07-26T10:32:12.114Z,23.46
2022-07-26T10:33:10.932Z,22.97
2022-07-26T10:34:12.084Z,18
2022-07-26T10:35:12.246Z,22.72
2022-07-26T10:36:11.009Z,24.26
2022-07-26T10:37:10.904Z,24.19
2022-07-26T10:38:11.830Z,24.12
2022-07-26T10:39:11.760Z,24.12
2022-07-26T10:40:11.887Z,23.92
2022-07-26T10:41:11.828Z,24.40
2022-07-26T10:42:11.963Z,23.05
2022-07-26T10:43:43.184Z,22.47
2022-07-26T10:44:11.702Z,22.47
2022-07-26T10:45:11.132Z,22.93
2022-07-26T10:46:11.262Z,22.61
2022-07-26T10:47:11.078Z,23.42
2022-07-26T10:48:11.121Z,24.31
2022-07-26T10:49:10.890Z,24.18
2022-07-26T10:50:11.763Z,24.11
2022-07-26T10:51:11.540Z,23.14
2022-07-26T10:52:11.767Z,23.43
2022-07-26T10:53:11.411Z,24.04
2022-07-26T10:54:12.977Z,23.97
2022-07-26T10:55:11.591Z,24.28
2022-07-26T10:56:11.146Z,24.14
2022-07-26T10:57:10.912Z,24.51
2022-07-26T10:58:11.806Z,24.45
2022-07-26T10:59:11.454Z,24.05
2022-07-26T11:00:12.941Z,23.77
2022-07-26T11:01:11.569Z,23.60
2022-07-26T11:02:11.530Z,23.79
2022-07-26T11:03:11.704Z,23.87
2022-07-26T11:04:12.381Z,23.72
2022-07-26T11:05:11.791Z,23.97
2022-07-26T11:06:11.598Z,23.81
2022-07-26T11:07:11.634Z,23.70
2022-07-26T11:08:11.421Z,22.73
2022-07-26T11:09:11.339Z,22.71
2022-07-26T11:10:11.287Z,23.04
2022-07-26T11:11:11.320Z,22.81
2022-07-26T11:12:11.155Z,22.98
2022-07-26T11:13:10.906Z,22.67
2022-07-26T11:14:13.162Z,23.69
2022-07-26T11:15:12.066Z,23.65
2022-07-26T11:16:11.471Z,23.73
2022-07-26T11:17:11.156Z,23.62
2022-07-26T11:18:10.849Z,23.79
2022-07-26T11:19:11.622Z,23.62
2022-07-26T11:20:12.032Z,23.57
2022-07-26T11:21:11.072Z,23.38
2022-07-26T11:22:14.507Z,24.03
2022-07-26T11:23:11.183Z,24.21
2022-07-26T11:24:11.912Z,24.45
2022-07-26T11:25:11.280Z,24.04
2022-07-26T11:26:11.134Z,23.82
2022-07-26T11:27:10.870Z,23.09
2022-07-26T11:28:11.913Z,22.97
2022-07-26T11:29:14.304Z,22.94
2022-07-26T11:30:11.935Z,23.19
2022-07-26T11:31:11.986Z,23.44
2022-07-26T11:33:11.155Z,23.22
2022-07-26T11:34:15.047Z,23.37
2022-07-26T11:35:11.474Z,22.67
2022-07-26T11:36:11.536Z,23.07
2022-07-26T11:37:11.532Z,22.77
2022-07-26T11:38:16.111Z,23.34
2022-07-26T11:39:11.146Z,23.34
2022-07-26T11:40:11.044Z,24.04
2022-07-26T11:41:11.526Z,23.94
2022-07-26T11:42:11.685Z,23.18
2022-07-26T11:43:11.489Z,23.98
2022-07-26T11:44:11.650Z,23.88
2022-07-26T11:45:11.883Z,24.04
2022-07-26T11:46:11.901Z,24.38
2022-07-26T11:47:11.253Z,23.62
2022-07-26T11:48:11.181Z,23.86
2022-07-26T11:49:11.566Z,23.26
2022-07-26T11:50:25.520Z,23.20
2022-07-26T11:51:11.368Z,23.20
2022-07-26T11:52:11.310Z,23.03
2022-07-26T11:53:11.089Z,23.30
2022-07-26T11:54:11.615Z,23.20
2022-07-26T11:55:11.984Z,23.21
2022-07-26T11:56:11.467Z,23.22
2022-07-26T11:57:11.838Z,23.26
2022-07-26T11:58:11.546Z,22.52
2022-07-26T11:59:11.704Z,22.69
2022-07-26T12:00:12.731Z,22.55
2022-07-26T12:01:11.809Z,22.62
2022-07-26T12:02:11.803Z,22.17
2022-07-26T12:03:11.863Z,22.45
2022-07-26T12:04:13.274Z,21.95
2022-07-26T12:05:11.979Z,22.37
2022-07-26T12:06:11.028Z,22.46
2022-07-26T12:07:11.451Z,22.82
2022-07-26T12:08:11.256Z,23.14
2022-07-26T12:09:11.465Z,23.61
2022-07-26T12:10:12.084Z,22.97
2022-07-26T12:11:10.842Z,22.89
2022-07-26T12:12:11.402Z,22.89
2022-07-26T12:13:11.155Z,22.93
2022-07-26T12:14:16.385Z,22.62
2022-07-26T12:15:11.879Z,22.22
2022-07-26T12:16:11.739Z,21.87
2022-07-26T12:17:11.666Z,22.07
2022-07-26T12:18:11.226Z,21.87
2022-07-26T12:19:11.346Z,22.11
2022-07-26T12:20:12.179Z,21.95
2022-07-26T12:21:12.520Z,21.65
2022-07-26T12:22:15.582Z,22.12
2022-07-26T12:23:11.330Z,22.10
2022-07-26T12:24:12.366Z,22.18
2022-07-26T12:25:11.655Z,22.70
2022-07-26T12:26:13.813Z,23.62
2022-07-26T12:27:11.623Z,24.12
2022-07-26T12:28:11.337Z,24.23
2022-07-26T12:29:11.221Z,24.65
2022-07-26T12:30:11.618Z,24.21
2022-07-26T12:31:11.488Z,24.53
2022-07-26T12:32:16.768Z,24.72
2022-07-26T12:33:11.403Z,24.95
2022-07-26T12:34:11.718Z,24.80
2022-07-26T12:35:12.148Z,25.07
2022-07-26T12:36:11.347Z,25.04
2022-07-26T12:37:11.493Z,23.95
2022-07-26T12:38:11.171Z,24.26
2022-07-26T12:39:11.266Z,24.17
2022-07-26T12:40:11.714Z,24.28
2022-07-26T12:41:17.502Z,23.96
2022-07-26T12:42:11.604Z,24.42
2022-07-26T12:43:11.227Z,24.12
2022-07-26T12:44:12.906Z,24.70
2022-07-26T12:45:11.807Z,24.42
2022-07-26T12:46:13.128Z,24.02
2022-07-26T12:47:11.024Z,23.96
2022-07-26T12:48:11.034Z,23.78
2022-07-26T12:49:11.137Z,24.11
2022-07-26T12:50:11.246Z,23.40
2022-07-26T12:51:11.101Z,23.34
2022-07-26T12:52:11.032Z,23.60
2022-07-26T12:53:12.676Z,23.59
2022-07-26T12:54:11.571Z,23.55
2022-07-26T12:55:11.729Z,23.77
2022-07-26T12:56:11.693Z,23.98
2022-07-26T12:57:11.475Z,23.90
2022-07-26T12:58:11.396Z,23.85
2022-07-26T12:59:11.346Z,23.54